createdAt,value
2023-02-01T00:00:09.911Z,1.45
2023-02-01T00:02:40.823Z,1.42
2023-02-01T00:05:09.858Z,1.56
2023-02-01T00:07:37.904Z,1.50
2023-02-01T00:10:06.412Z,1.06
2023-02-01T00:12:34.117Z,1.20
2023-02-01T00:15:01.857Z,0.55
2023-02-01T00:17:29.583Z,1.06
2023-02-01T00:19:57.344Z,0.60
2023-02-01T00:22:25.105Z,0.56
2023-02-01T00:24:52.770Z,0.73
2023-02-01T00:27:22.280Z,0.69
2023-02-01T00:29:49.991Z,0.86
2023-02-01T00:32:17.805Z,1.09
2023-02-01T00:34:45.522Z,1.24
2023-02-01T00:37:13.214Z,1.32
2023-02-01T00:39:40.914Z,1.23
2023-02-01T00:42:09.276Z,1.17
2023-02-01T00:44:36.992Z,1.19
2023-02-01T00:47:04.711Z,1.22
2023-02-01T00:49:32.416Z,1.11
2023-02-01T00:52:00.187Z,1.44
2023-02-01T00:54:27.963Z,1.35
2023-02-01T00:56:55.688Z,1.33
2023-02-01T00:59:23.376Z,1.28
2023-02-01T01:01:51.165Z,0.71
2023-02-01T01:04:18.966Z,0.97
2023-02-01T01:06:46.702Z,1.19
2023-02-01T01:09:14.430Z,1.29
2023-02-01T01:11:42.188Z,1.39
2023-02-01T01:14:10.017Z,0.66
2023-02-01T01:16:38.668Z,0.69
2023-02-01T01:19:06.607Z,1.02
2023-02-01T01:21:34.384Z,1.11
2023-02-01T01:24:02.152Z,1.12
2023-02-01T01:26:30.404Z,1.15
2023-02-01T01:28:58.805Z,0.53
2023-02-01T01:31:26.733Z,0.96
2023-02-01T01:33:55.993Z,0.36
2023-02-01T01:36:24.286Z,0.87
2023-02-01T01:38:52.056Z,1.13
2023-02-01T01:41:22.057Z,0.61
2023-02-01T01:43:57.976Z,0.79
2023-02-01T01:46:38.526Z,0.95
2023-02-01T01:49:15.013Z,0.82
2023-02-01T01:51:48.978Z,0.85
2023-02-01T01:54:43.433Z,0.62
2023-02-01T01:57:18.052Z,0.15
2023-02-01T01:59:48.642Z,0.52
2023-02-01T02:02:16.579Z,0.18
2023-02-01T02:04:44.359Z,0.52
2023-02-01T02:07:21.402Z,0.83
2023-02-01T02:10:00.138Z,0.44
2023-02-01T02:12:29.168Z,0.16
2023-02-01T02:14:57.047Z,0.42
2023-02-01T02:17:55.895Z,0.16
2023-02-01T02:20:41.102Z,0.46
2023-02-01T02:23:30.426Z,-0.85
2023-02-01T02:26:43.432Z,0.26
2023-02-01T02:29:26.301Z,-0.64
2023-02-01T02:32:21.494Z,-0.38
2023-02-01T02:34:57.353Z,-0.10
2023-02-01T02:37:47.858Z,-0.13
2023-02-01T02:40:33.967Z,-0.27
2023-02-01T02:43:23.470Z,-0.19
2023-02-01T02:46:45.392Z,-0.44
2023-02-01T02:49:16.227Z,-0.49
2023-02-01T02:52:41.839Z,-0.07
2023-02-01T02:55:09.722Z,-0.80
2023-02-01T02:58:00.650Z,-0.82
2023-02-01T03:00:48.852Z,-0.51
2023-02-01T03:03:34.985Z,-1.17
2023-02-01T03:06:03.050Z,-0.71
2023-02-01T03:08:32.251Z,-0.13
2023-02-01T03:11:06.410Z,-0.26
2023-02-01T03:13:37.203Z,-0.49
2023-02-01T03:16:29.247Z,0.03
2023-02-01T03:19:15.508Z,0.21
2023-02-01T03:21:57.847Z,0.16
2023-02-01T03:24:39.059Z,0.13
2023-02-01T03:27:09.222Z,0.31
2023-02-01T03:30:02.729Z,0.05
2023-02-01T03:32:50.877Z,0.01
2023-02-01T03:35:19.171Z,-0.03
2023-02-01T03:37:46.899Z,0.32
2023-02-01T03:40:15.171Z,0.10
2023-02-01T03:42:46.147Z,-0.53
2023-02-01T03:45:22.654Z,-0.26
2023-02-01T03:47:51.563Z,0.40
2023-02-01T03:50:24.975Z,0.41
2023-02-01T03:53:05.362Z,0.25
2023-02-01T03:55:33.577Z,0.04
2023-02-01T03:58:04.324Z,0.35
2023-02-01T04:00:32.299Z,-0.05
2023-02-01T04:03:00.343Z,-0.05
2023-02-01T04:05:28.142Z,-0.19
2023-02-01T04:07:59.988Z,-0.56
2023-02-01T04:10:27.672Z,-0.16
2023-02-01T04:12:55.427Z,0.16
2023-02-01T04:15:23.135Z,0.27
2023-02-01T04:17:50.907Z,0.22
2023-02-01T04:20:18.754Z,0.42
2023-02-01T04:22:46.510Z,0.34
2023-02-01T04:25:14.245Z,0.48
2023-02-01T04:27:42.009Z,0.39
2023-02-01T04:30:10.940Z,-0.14
2023-02-01T04:32:39.140Z,0.45
2023-02-01T04:35:07.323Z,0.32
2023-02-01T04:37:35.314Z,-0.03
2023-02-01T04:40:04.681Z,-0.43
2023-02-01T04:42:32.488Z,0.36
2023-02-01T04:45:00.183Z,0.11
2023-02-01T04:47:27.922Z,0.11
2023-02-01T04:49:55.828Z,-0.31
2023-02-01T04:52:23.605Z,-0.31
2023-02-01T04:54:51.401Z,-0.19
2023-02-01T04:57:19.181Z,-0.11
2023-02-01T04:59:46.873Z,0.21
2023-02-01T05:02:14.634Z,-0.41
2023-02-01T05:04:42.372Z,-0.26
2023-02-01T05:07:10.136Z,0.20
2023-02-01T05:09:37.866Z,0.07
2023-02-01T05:12:24.678Z,-0.13
2023-02-01T05:14:52.485Z,0.06
2023-02-01T05:17:20.209Z,-0.07
2023-02-01T05:19:47.942Z,0.21
2023-02-01T05:22:15.685Z,0.48
2023-02-01T05:24:43.367Z,0.22
2023-02-01T05:27:11.076Z,-0.27
2023-02-01T05:29:38.791Z,-0.08
2023-02-01T05:32:21.096Z,-0.24
2023-02-01T05:34:50.270Z,-0.98
2023-02-01T05:37:17.981Z,-0.24
2023-02-01T05:39:45.682Z,-0.29
2023-02-01T05:42:13.422Z,0.07
2023-02-01T05:44:41.116Z,-0.43
2023-02-01T05:47:08.916Z,-0.60
2023-02-01T05:49:36.662Z,-0.90
2023-02-01T05:52:04.487Z,-0.20
2023-02-01T05:54:32.199Z,-0.22
2023-02-01T05:57:00.012Z,-0.30
2023-02-01T05:59:27.695Z,-0.42
2023-02-01T06:01:55.460Z,-0.32
2023-02-01T06:04:23.164Z,-0.66
2023-02-01T06:06:51.636Z,-1.33
2023-02-01T06:09:19.350Z,-0.85
2023-02-01T06:11:47.311Z,-0.82
2023-02-01T06:14:15.062Z,-0.88
2023-02-01T06:16:42.854Z,-0.82
2023-02-01T06:19:10.542Z,-0.72
2023-02-01T06:21:38.265Z,-1.53
2023-02-01T06:24:07.177Z,-1.51
2023-02-01T06:26:34.940Z,-1.29
2023-02-01T06:29:02.633Z,-1.14
2023-02-01T06:31:30.440Z,-1.29
2023-02-01T06:33:58.398Z,-1.14
2023-02-01T06:36:26.198Z,-1.21
2023-02-01T06:38:54.062Z,-0.77
2023-02-01T06:41:21.844Z,-0.09
2023-02-01T06:43:49.946Z,-0.41
2023-02-01T06:46:17.896Z,-0.75
2023-02-01T06:48:47.105Z,-0.43
2023-02-01T06:51:25.661Z,-0.18
2023-02-01T06:53:53.442Z,0.08
2023-02-01T06:56:23.997Z,0.42
2023-02-01T06:58:51.873Z,0.25
2023-02-01T07:01:19.564Z,0.30
2023-02-01T07:03:51.915Z,-0.07
2023-02-01T07:06:19.880Z,-0.54
2023-02-01T07:08:47.606Z,0.38
2023-02-01T07:11:15.811Z,0.57
2023-02-01T07:13:43.570Z,-0.12
2023-02-01T07:16:13.385Z,-0.15
2023-02-01T07:18:41.211Z,-0.52
2023-02-01T07:21:09.196Z,-0.07
2023-02-01T07:23:36.981Z,-0.09
2023-02-01T07:26:06.235Z,-0.26
2023-02-01T07:28:35.462Z,-0.29
2023-02-01T07:31:10.613Z,-0.82
2023-02-01T07:33:38.496Z,-0.23
2023-02-01T07:36:07.293Z,-0.49
2023-02-01T07:38:35.201Z,-0.68
2023-02-01T07:41:04.211Z,-0.32
2023-02-01T07:43:32.043Z,-0.27
2023-02-01T07:45:59.916Z,0.00
2023-02-01T07:48:28.125Z,0.35
2023-02-01T07:51:02.657Z,0.57
2023-02-01T07:53:31.098Z,-0.30
2023-02-01T07:55:58.874Z,-0.04
2023-02-01T07:58:26.676Z,0.22
2023-02-01T08:01:12.876Z,0.81
2023-02-01T08:03:40.766Z,0.62
2023-02-01T08:06:08.520Z,0.19
2023-02-01T08:08:36.457Z,0.10
2023-02-01T08:11:05.501Z,0.73
2023-02-01T08:13:34.722Z,0.48
2023-02-01T08:16:03.937Z,0.74
2023-02-01T08:18:31.798Z,1.03
2023-02-01T08:21:09.655Z,0.93
2023-02-01T08:23:38.140Z,0.89
2023-02-01T08:26:10.672Z,1.16
2023-02-01T08:28:39.431Z,1.39
2023-02-01T08:31:11.201Z,1.12
2023-02-01T08:33:39.038Z,1.42
2023-02-01T08:36:07.386Z,1.22
2023-02-01T08:38:38.636Z,1.23
2023-02-01T08:41:15.433Z,1.13
2023-02-01T08:43:43.368Z,0.86
2023-02-01T08:46:11.531Z,0.59
2023-02-01T08:48:39.504Z,0.55
2023-02-01T08:51:08.866Z,0.66
2023-02-01T08:53:37.297Z,0.44
2023-02-01T08:56:05.453Z,1.16
2023-02-01T08:58:33.191Z,1.17
2023-02-01T09:01:08.622Z,1.41
2023-02-01T09:03:36.462Z,1.02
2023-02-01T09:06:08.642Z,1.04
2023-02-01T09:08:36.424Z,0.92
2023-02-01T09:11:08.412Z,1.45
2023-02-01T09:13:36.588Z,1.74
2023-02-01T09:16:04.873Z,1.74
2023-02-01T09:18:32.700Z,1.57
2023-02-01T09:21:00.428Z,1.52
2023-02-01T09:23:28.272Z,1.81
2023-02-01T09:25:59.427Z,2.21
2023-02-01T09:28:27.422Z,2.22
2023-02-01T09:31:01.538Z,1.99
2023-02-01T09:33:29.849Z,1.89
2023-02-01T09:36:01.697Z,1.90
2023-02-01T09:38:29.653Z,2.12
2023-02-01T09:40:57.759Z,1.88
2023-02-01T09:43:34.732Z,1.98
2023-02-01T09:46:22.871Z,2.10
2023-02-01T09:48:50.864Z,2.09
2023-02-01T09:51:22.813Z,1.84
2023-02-01T09:54:01.224Z,1.87
2023-02-01T09:56:35.919Z,1.79
2023-02-01T09:59:12.090Z,1.85
2023-02-01T10:01:39.964Z,1.77
2023-02-01T10:04:13.418Z,1.53
2023-02-01T10:07:16.440Z,1.51
2023-02-01T10:09:59.247Z,2.01
2023-02-01T10:13:02.792Z,1.78
2023-02-01T10:15:39.196Z,1.82
2023-02-01T10:18:25.620Z,1.98
2023-02-01T10:21:17.614Z,1.97
2023-02-01T10:23:55.236Z,2.25
2023-02-01T10:26:25.221Z,2.23
2023-02-01T10:28:54.818Z,2.31
2023-02-01T10:31:27.054Z,2.71
2023-02-01T10:34:02.601Z,2.83
2023-02-01T10:36:37.337Z,2.88
2023-02-01T10:39:05.485Z,2.37
2023-02-01T10:41:37.400Z,2.80
2023-02-01T10:44:07.307Z,2.89
2023-02-01T10:46:35.204Z,2.22
2023-02-01T10:49:04.242Z,2.54
2023-02-01T10:51:46.155Z,2.90
2023-02-01T10:54:34.566Z,3.12
2023-02-01T10:57:02.368Z,2.91
2023-02-01T10:59:30.436Z,2.87
2023-02-01T11:02:36.364Z,2.48
2023-02-01T11:05:13.172Z,2.62
2023-02-01T11:07:41.925Z,2.24
2023-02-01T11:10:11.265Z,2.85
2023-02-01T11:12:39.073Z,2.40
2023-02-01T11:15:12.850Z,2.20
2023-02-01T11:17:45.398Z,1.14
2023-02-01T11:20:20.883Z,1.73
2023-02-01T11:22:49.781Z,1.62
2023-02-01T11:25:18.379Z,1.95
2023-02-01T11:27:54.658Z,1.23
2023-02-01T11:30:39.385Z,1.48
2023-02-01T11:33:07.311Z,1.62
2023-02-01T11:35:38.203Z,1.58
2023-02-01T11:38:22.969Z,2.09
2023-02-01T11:40:50.901Z,1.83
2023-02-01T11:43:26.562Z,2.43
2023-02-01T11:46:04.189Z,1.81
2023-02-01T11:48:33.214Z,2.32
2023-02-01T11:51:12.872Z,1.80
2023-02-01T11:54:17.226Z,1.76
2023-02-01T11:57:01.805Z,2.06
2023-02-01T11:59:38.843Z,2.48
2023-02-01T12:02:11.415Z,2.47
2023-02-01T12:05:01.255Z,2.58
2023-02-01T12:07:58.567Z,1.69
2023-02-01T12:10:45.161Z,1.77
2023-02-01T12:13:20.269Z,1.75
2023-02-01T12:16:03.543Z,1.72
2023-02-01T12:18:52.923Z,1.54
2023-02-01T12:21:52.524Z,1.90
2023-02-01T12:24:20.402Z,2.38
2023-02-01T12:27:18.849Z,2.11
2023-02-01T12:29:49.472Z,2.40
2023-02-01T12:32:25.769Z,2.59
2023-02-01T12:35:03.875Z,2.53
2023-02-01T12:37:56.735Z,2.15
2023-02-01T12:40:29.966Z,1.69
2023-02-01T12:43:04.505Z,1.92
2023-02-01T12:45:55.540Z,1.82
2023-02-01T12:48:31.364Z,2.07
2023-02-01T12:51:03.001Z,2.07
2023-02-01T12:54:01.971Z,2.11
2023-02-01T12:56:56.463Z,2.01
2023-02-01T12:59:39.948Z,2.10
2023-02-01T13:02:26.031Z,2.41
2023-02-01T13:05:25.902Z,2.08
2023-02-01T13:07:59.281Z,1.89
2023-02-01T13:10:35.701Z,2.56
2023-02-01T13:13:30.022Z,2.51
2023-02-01T13:16:28.213Z,3.28
2023-02-01T13:19:21.349Z,2.67
2023-02-01T13:22:12.975Z,3.06
2023-02-01T13:24:46.153Z,2.66
2023-02-01T13:27:14.388Z,2.95
2023-02-01T13:30:02.994Z,2.65
2023-02-01T13:33:53.309Z,2.04
2023-02-01T13:35:56.650Z,2.52
2023-02-01T13:38:44.637Z,2.77
2023-02-01T13:41:18.014Z,3.06
2023-02-01T13:43:45.867Z,2.68
2023-02-01T13:46:18.095Z,3.05
2023-02-01T13:48:48.812Z,3.08
2023-02-01T13:51:16.599Z,2.68
2023-02-01T13:53:49.101Z,2.91
2023-02-01T13:56:19.110Z,2.75
2023-02-01T13:58:48.246Z,2.90
2023-02-01T14:01:22.023Z,2.99
2023-02-01T14:03:57.163Z,2.69
2023-02-01T14:06:28.382Z,2.92
2023-02-01T14:09:14.461Z,2.43
2023-02-01T14:11:45.460Z,2.78
2023-02-01T14:14:16.017Z,3.04
2023-02-01T14:16:44.409Z,3.27
2023-02-01T14:19:34.575Z,3.23
2023-02-01T14:22:22.401Z,3.35
2023-02-01T14:24:55.179Z,3.68
2023-02-01T14:27:25.801Z,4.08
2023-02-01T14:30:02.113Z,4.09
2023-02-01T14:32:37.615Z,4.33
2023-02-01T14:35:27.125Z,3.93
2023-02-01T14:37:59.633Z,3.91
2023-02-01T14:40:28.644Z,4.21
2023-02-01T14:42:57.908Z,4.26
2023-02-01T14:45:29.385Z,4.28
2023-02-01T14:48:06.338Z,3.59
2023-02-01T14:50:34.506Z,4.25
2023-02-01T14:53:05.275Z,3.53
2023-02-01T14:55:54.533Z,3.76
2023-02-01T14:58:53.108Z,4.09
2023-02-01T15:01:24.781Z,3.79
2023-02-01T15:04:11.957Z,3.75
2023-02-01T15:06:43.005Z,2.96
2023-02-01T15:09:19.952Z,2.87
2023-02-01T15:12:07.032Z,2.64
2023-02-01T15:14:37.149Z,2.74
2023-02-01T15:17:20.897Z,3.23
2023-02-01T15:19:58.362Z,3.39
2023-02-01T15:22:26.770Z,2.89
2023-02-01T15:24:59.351Z,2.49
2023-02-01T15:27:28.134Z,3.22
2023-02-01T15:29:55.849Z,3.06
2023-02-01T15:32:49.991Z,3.07
2023-02-01T15:35:37.210Z,2.90
2023-02-01T15:38:26.251Z,3.12
2023-02-01T15:41:05.926Z,3.11
2023-02-01T15:43:35.426Z,3.24
2023-02-01T15:46:06.298Z,3.10
2023-02-01T15:48:38.180Z,3.78
2023-02-01T15:51:06.125Z,3.46
2023-02-01T15:53:35.054Z,3.14
2023-02-01T15:56:03.523Z,2.77
2023-02-01T15:58:32.838Z,3.35
2023-02-01T16:01:03.193Z,3.07
2023-02-01T16:03:39.192Z,3.47
2023-02-01T16:06:09.122Z,3.43
2023-02-01T16:08:38.038Z,3.71
2023-02-01T16:11:16.472Z,3.91
2023-02-01T16:13:44.206Z,3.21
2023-02-01T16:16:14.969Z,3.53
2023-02-01T16:18:43.106Z,3.79
2023-02-01T16:21:10.813Z,3.75
2023-02-01T16:23:38.634Z,3.68
2023-02-01T16:26:06.988Z,3.61
2023-02-01T16:28:34.857Z,3.59
2023-02-01T16:31:02.701Z,3.62
2023-02-01T16:33:30.590Z,3.51
2023-02-01T16:36:01.311Z,3.66
2023-02-01T16:38:29.080Z,3.65
2023-02-01T16:40:58.620Z,3.09
2023-02-01T16:43:27.246Z,3.33
2023-02-01T16:45:56.203Z,3.51
2023-02-01T16:48:26.043Z,3.11
2023-02-01T16:51:10.394Z,2.78
2023-02-01T16:53:53.126Z,2.22
2023-02-01T16:56:32.403Z,2.73
2023-02-01T16:59:00.354Z,2.35
2023-02-01T17:01:28.321Z,2.72
2023-02-01T17:03:56.996Z,1.50
2023-02-01T17:06:25.566Z,2.31
2023-02-01T17:08:58.995Z,2.29
2023-02-01T17:11:27.647Z,2.12
2023-02-01T17:13:56.960Z,2.14
2023-02-01T17:16:29.346Z,2.37
2023-02-01T17:19:03.552Z,1.50
2023-02-01T17:22:06.726Z,2.65
2023-02-01T17:24:47.566Z,2.64
2023-02-01T17:27:16.967Z,2.24
2023-02-01T17:29:47.031Z,2.07
2023-02-01T17:32:20.111Z,2.08
2023-02-01T17:34:48.081Z,1.57
2023-02-01T17:37:29.868Z,1.02
2023-02-01T17:39:57.842Z,1.04
2023-02-01T17:42:27.962Z,1.01
2023-02-01T17:44:57.426Z,0.64
2023-02-01T17:47:25.131Z,0.59
2023-02-01T17:49:56.676Z,1.18
2023-02-01T17:52:25.073Z,1.19
2023-02-01T17:54:54.233Z,1.24
2023-02-01T17:57:22.053Z,1.89
2023-02-01T17:59:49.771Z,1.72
2023-02-01T18:02:24.677Z,1.60
2023-02-01T18:04:52.612Z,1.95
2023-02-01T18:07:20.357Z,1.94
2023-02-01T18:09:48.121Z,1.20
2023-02-01T18:12:37.833Z,1.84
2023-02-01T18:15:21.632Z,1.89
2023-02-01T18:17:50.248Z,1.47
2023-02-01T18:20:24.249Z,1.34
2023-02-01T18:22:57.333Z,1.46
2023-02-01T18:25:32.240Z,0.97
2023-02-01T18:28:06.033Z,0.99
2023-02-01T18:30:34.113Z,0.72
2023-02-01T18:33:08.533Z,0.56
2023-02-01T18:35:45.388Z,0.11
2023-02-01T18:38:16.677Z,0.85
2023-02-01T18:40:56.394Z,0.12
2023-02-01T18:43:26.321Z,-0.04
2023-02-01T18:46:01.096Z,0.87
2023-02-01T18:48:39.089Z,1.05
2023-02-01T18:51:21.131Z,0.95
2023-02-01T18:53:53.850Z,0.97
2023-02-01T18:56:26.067Z,0.90
2023-02-01T18:59:01.566Z,0.63
2023-02-01T19:01:34.842Z,0.80
2023-02-01T19:04:18.966Z,1.09
2023-02-01T19:06:54.407Z,-0.03
2023-02-01T19:09:28.602Z,0.63
2023-02-01T19:11:58.757Z,1.09
2023-02-01T19:14:32.189Z,1.66
2023-02-01T19:17:10.220Z,1.39
2023-02-01T19:19:54.778Z,1.60
2023-02-01T19:22:28.720Z,1.79
2023-02-01T19:25:02.257Z,1.45
2023-02-01T19:27:38.494Z,1.46
2023-02-01T19:30:12.646Z,1.41
2023-02-01T19:32:46.683Z,0.90
2023-02-01T19:35:19.534Z,0.79
2023-02-01T19:37:48.083Z,0.27
2023-02-01T19:40:20.014Z,0.95
2023-02-01T19:42:58.243Z,0.66
2023-02-01T19:45:28.210Z,0.74
2023-02-01T19:47:56.053Z,1.13
2023-02-01T19:50:23.897Z,1.23
2023-02-01T19:52:51.664Z,1.57
2023-02-01T19:55:19.433Z,1.19
2023-02-01T19:57:47.206Z,1.19
2023-02-01T20:00:17.031Z,0.98
2023-02-01T20:02:44.877Z,1.13
2023-02-01T20:05:12.612Z,1.09
2023-02-01T20:07:40.303Z,1.23
2023-02-01T20:10:08.804Z,1.44
2023-02-01T20:12:36.543Z,1.42
2023-02-01T20:15:04.697Z,1.32
2023-02-01T20:17:34.933Z,1.05
2023-02-01T20:20:04.362Z,1.05
2023-02-01T20:22:32.326Z,1.14
2023-02-01T20:25:02.443Z,1.48
2023-02-01T20:27:31.072Z,0.86
2023-02-01T20:29:59.138Z,1.05
2023-02-01T20:32:26.854Z,1.10
2023-02-01T20:34:54.589Z,1.11
2023-02-01T20:37:22.286Z,1.23
2023-02-01T20:39:50.000Z,1.24
2023-02-01T20:42:17.923Z,1.32
2023-02-01T20:44:45.692Z,0.93
2023-02-01T20:47:13.366Z,0.98
2023-02-01T20:49:41.169Z,1.38
2023-02-01T20:52:08.983Z,1.27
2023-02-01T20:54:38.497Z,1.09
2023-02-01T20:57:06.389Z,1.42
2023-02-01T20:59:34.095Z,1.24
2023-02-01T21:02:02.627Z,1.45
2023-02-01T21:04:30.604Z,1.79
2023-02-01T21:06:58.988Z,1.50
2023-02-01T21:09:26.902Z,1.83
2023-02-01T21:11:54.677Z,2.01
2023-02-01T21:14:22.475Z,1.86
2023-02-01T21:16:50.181Z,1.41
2023-02-01T21:19:18.012Z,1.33
2023-02-01T21:21:45.831Z,1.15
2023-02-01T21:24:13.518Z,1.21
2023-02-01T21:26:41.334Z,1.41
2023-02-01T21:29:13.551Z,0.76
2023-02-01T21:31:41.751Z,1.43
2023-02-01T21:34:09.490Z,1.76
2023-02-01T21:36:37.239Z,1.75
2023-02-01T21:39:06.917Z,1.46
2023-02-01T21:41:53.950Z,1.29
2023-02-01T21:44:22.186Z,1.27
2023-02-01T21:46:49.941Z,1.00
2023-02-01T21:49:17.767Z,1.21
2023-02-01T21:51:45.544Z,1.36
2023-02-01T21:54:13.475Z,1.33
2023-02-01T21:56:41.365Z,0.67
2023-02-01T21:59:10.357Z,1.58
2023-02-01T22:01:38.787Z,1.78
2023-02-01T22:04:06.859Z,1.46
2023-02-01T22:06:42.276Z,0.22
2023-02-01T22:09:21.157Z,0.44
2023-02-01T22:11:49.243Z,0.19
2023-02-01T22:14:17.092Z,0.40
2023-02-01T22:16:44.874Z,0.47
2023-02-01T22:19:12.722Z,0.79
2023-02-01T22:21:42.231Z,0.86
2023-02-01T22:24:10.856Z,0.78
2023-02-01T22:26:38.738Z,1.57
2023-02-01T22:29:07.241Z,0.90
2023-02-01T22:31:35.118Z,1.17
2023-02-01T22:34:02.916Z,1.15
2023-02-01T22:36:31.795Z,1.03
2023-02-01T22:38:59.517Z,1.03
2023-02-01T22:41:27.316Z,0.35
2023-02-01T22:43:55.030Z,0.40
2023-02-01T22:46:25.355Z,0.59
2023-02-01T22:48:53.115Z,0.71
2023-02-01T22:51:23.065Z,0.84
2023-02-01T22:53:57.136Z,1.34
2023-02-01T22:56:25.576Z,1.33
2023-02-01T22:58:55.349Z,1.01
2023-02-01T23:01:23.283Z,1.16
2023-02-01T23:03:51.086Z,0.83
2023-02-01T23:06:18.853Z,1.39
2023-02-01T23:08:46.592Z,1.49
2023-02-01T23:11:14.346Z,2.08
2023-02-01T23:13:42.083Z,2.13
2023-02-01T23:16:12.026Z,1.79
2023-02-01T23:18:40.121Z,1.69
2023-02-01T23:21:12.797Z,1.81
2023-02-01T23:23:40.660Z,1.89
2023-02-01T23:26:08.403Z,2.30
2023-02-01T23:28:36.105Z,2.49
2023-02-01T23:31:08.506Z,2.40
2023-02-01T23:33:36.525Z,2.79
2023-02-01T23:36:05.772Z,2.71
2023-02-01T23:38:33.663Z,2.73
2023-02-01T23:41:04.841Z,3.09
2023-02-01T23:43:51.161Z,2.75
2023-02-01T23:46:18.966Z,3.00
2023-02-01T23:48:47.500Z,2.82
2023-02-01T23:51:15.515Z,2.92
2023-02-01T23:53:44.831Z,2.88
2023-02-01T23:56:22.572Z,3.05
2023-02-01T23:58:51.812Z,2.73
